sensor_id;sensor_type;location;lat;lon;timestamp;pressure;altitude;pressure_sealevel;temperature;humidity
9423;BME280;65863;49.506;10.400;2023-04-06T00:02:41;98313.94;;;-3.49;77.67
9423;BME280;65863;49.506;10.400;2023-04-06T00:05:25;98294.94;;;-3.65;78.07
9423;BME280;65863;49.506;10.400;2023-04-06T00:08:10;98296.47;;;-3.64;77.96
9423;BME280;65863;49.506;10.400;2023-04-06T00:10:55;98269.53;;;-3.88;78.30
9423;BME280;65863;49.506;10.400;2023-04-06T00:13:39;98287.00;;;-3.63;78.13
9423;BME280;65863;49.506;10.400;2023-04-06T00:16:23;98285.31;;;-3.70;78.53
9423;BME280;65863;49.506;10.400;2023-04-06T00:19:06;98298.97;;;-3.57;78.44
9423;BME280;65863;49.506;10.400;2023-04-06T00:21:50;98302.81;;;-3.45;78.56
9423;BME280;65863;49.506;10.400;2023-04-06T00:24:35;98286.50;;;-3.49;79.09
9423;BME280;65863;49.506;10.400;2023-04-06T00:27:19;98177.91;;;-4.22;78.58
9423;BME280;65863;49.506;10.400;2023-04-06T00:30:04;98248.22;;;-3.84;79.04
9423;BME280;65863;49.506;10.400;2023-04-06T00:32:49;98262.47;;;-3.98;79.06
9423;BME280;65863;49.506;10.400;2023-04-06T00:35:34;98223.63;;;-4.19;78.97
9423;BME280;65863;49.506;10.400;2023-04-06T00:38:18;98258.41;;;-3.84;78.99
9423;BME280;65863;49.506;10.400;2023-04-06T00:41:03;98308.97;;;-3.63;79.11
9423;BME280;65863;49.506;10.400;2023-04-06T00:43:48;98235.50;;;-4.22;79.20
9423;BME280;65863;49.506;10.400;2023-04-06T00:46:32;98307.59;;;-3.68;78.97
9423;BME280;65863;49.506;10.400;2023-04-06T00:49:16;98284.81;;;-3.77;78.98
9423;BME280;65863;49.506;10.400;2023-04-06T00:52:01;98295.41;;;-3.67;79.00
9423;BME280;65863;49.506;10.400;2023-04-06T00:54:45;98287.19;;;-3.89;79.43
9423;BME280;65863;49.506;10.400;2023-04-06T00:57:31;98261.97;;;-4.28;79.20
9423;BME280;65863;49.506;10.400;2023-04-06T01:00:15;98309.09;;;-3.98;79.46
9423;BME280;65863;49.506;10.400;2023-04-06T01:03:02;98286.25;;;-3.95;79.74
9423;BME280;65863;49.506;10.400;2023-04-06T01:05:55;98081.09;;;-5.39;79.28
9423;BME280;65863;49.506;10.400;2023-04-06T01:08:47;98240.13;;;-4.54;79.52
9423;BME280;65863;49.506;10.400;2023-04-06T01:11:37;98275.41;;;-4.21;79.92
9423;BME280;65863;49.506;10.400;2023-04-06T01:14:25;98214.16;;;-4.49;79.76
9423;BME280;65863;49.506;10.400;2023-04-06T01:17:15;98269.47;;;-4.19;79.96
9423;BME280;65863;49.506;10.400;2023-04-06T01:20:00;98263.28;;;-4.33;79.94
9423;BME280;65863;49.506;10.400;2023-04-06T01:22:48;98272.28;;;-4.32;79.90
9423;BME280;65863;49.506;10.400;2023-04-06T01:25:32;98269.41;;;-4.51;80.38
9423;BME280;65863;49.506;10.400;2023-04-06T01:28:24;98285.91;;;-4.41;80.25
9423;BME280;65863;49.506;10.400;2023-04-06T01:31:18;98213.09;;;-4.87;80.35
9423;BME280;65863;49.506;10.400;2023-04-06T01:34:07;98232.53;;;-4.72;80.69
9423;BME280;65863;49.506;10.400;2023-04-06T01:36:51;98159.81;;;-5.08;80.58
9423;BME280;65863;49.506;10.400;2023-04-06T01:39:45;98267.91;;;-4.29;80.47
9423;BME280;65863;49.506;10.400;2023-04-06T01:42:34;98210.50;;;-4.68;80.58
9423;BME280;65863;49.506;10.400;2023-04-06T01:45:18;98227.00;;;-4.59;80.91
9423;BME280;65863;49.506;10.400;2023-04-06T01:48:04;98261.13;;;-4.38;81.04
9423;BME280;65863;49.506;10.400;2023-04-06T01:50:49;98267.41;;;-4.50;80.65
9423;BME280;65863;49.506;10.400;2023-04-06T01:53:39;98220.50;;;-4.74;80.85
9423;BME280;65863;49.506;10.400;2023-04-06T01:56:24;98209.84;;;-4.94;80.75
9423;BME280;65863;49.506;10.400;2023-04-06T01:59:17;98218.50;;;-4.96;81.00
9423;BME280;65863;49.506;10.400;2023-04-06T02:02:02;98249.97;;;-4.78;81.12
9423;BME280;65863;49.506;10.400;2023-04-06T02:04:48;98258.34;;;-4.95;80.99
9423;BME280;65863;49.506;10.400;2023-04-06T02:07:32;98263.91;;;-4.86;81.10
9423;BME280;65863;49.506;10.400;2023-04-06T02:10:18;98270.28;;;-4.89;81.21
9423;BME280;65863;49.506;10.400;2023-04-06T02:13:02;98250.66;;;-4.87;81.40
9423;BME280;65863;49.506;10.400;2023-04-06T02:15:47;98229.31;;;-4.92;81.38
9423;BME280;65863;49.506;10.400;2023-04-06T02:18:31;98233.28;;;-5.06;81.66
9423;BME280;65863;49.506;10.400;2023-04-06T02:21:15;98193.09;;;-5.44;81.71
9423;BME280;65863;49.506;10.400;2023-04-06T02:24:04;98227.81;;;-5.06;82.04
9423;BME280;65863;49.506;10.400;2023-04-06T02:26:48;98182.78;;;-5.40;82.19
9423;BME280;65863;49.506;10.400;2023-04-06T02:29:32;98231.66;;;-5.04;81.96
9423;BME280;65863;49.506;10.400;2023-04-06T02:32:17;98249.41;;;-5.08;81.91
9423;BME280;65863;49.506;10.400;2023-04-06T02:35:01;98222.25;;;-5.15;81.97
9423;BME280;65863;49.506;10.400;2023-04-06T02:37:47;98257.34;;;-4.88;82.09
9423;BME280;65863;49.506;10.400;2023-04-06T02:40:31;98143.09;;;-5.71;81.97
9423;BME280;65863;49.506;10.400;2023-04-06T02:43:20;98223.25;;;-5.22;82.40
9423;BME280;65863;49.506;10.400;2023-04-06T02:46:06;98266.31;;;-4.88;82.41
9423;BME280;65863;49.506;10.400;2023-04-06T02:48:54;98242.06;;;-5.11;82.10
9423;BME280;65863;49.506;10.400;2023-04-06T02:51:39;98233.53;;;-5.13;82.42
9423;BME280;65863;49.506;10.400;2023-04-06T02:54:33;98246.53;;;-5.05;82.51
9423;BME280;65863;49.506;10.400;2023-04-06T02:57:19;98122.00;;;-5.96;81.90
9423;BME280;65863;49.506;10.400;2023-04-06T03:00:04;98197.53;;;-5.38;82.25
9423;BME280;65863;49.506;10.400;2023-04-06T03:02:56;98213.97;;;-5.38;81.99
9423;BME280;65863;49.506;10.400;2023-04-06T03:05:41;98256.66;;;-5.14;82.39
9423;BME280;65863;49.506;10.400;2023-04-06T03:08:26;98252.59;;;-5.23;82.25
9423;BME280;65863;49.506;10.400;2023-04-06T03:11:10;98228.97;;;-5.42;82.30
9423;BME280;65863;49.506;10.400;2023-04-06T03:13:58;98211.59;;;-5.48;82.21
9423;BME280;65863;49.506;10.400;2023-04-06T03:16:43;98137.78;;;-6.00;82.22
9423;BME280;65863;49.506;10.400;2023-04-06T03:19:29;98233.13;;;-5.50;82.54
9423;BME280;65863;49.506;10.400;2023-04-06T03:22:17;98218.78;;;-5.42;82.59
9423;BME280;65863;49.506;10.400;2023-04-06T03:25:05;98232.03;;;-5.40;82.17
9423;BME280;65863;49.506;10.400;2023-04-06T03:27:50;98214.19;;;-5.45;82.52
9423;BME280;65863;49.506;10.400;2023-04-06T03:30:36;98220.25;;;-5.50;82.66
9423;BME280;65863;49.506;10.400;2023-04-06T03:33:21;98162.78;;;-5.76;83.00
9423;BME280;65863;49.506;10.400;2023-04-06T03:36:11;98223.50;;;-5.42;82.57
9423;BME280;65863;49.506;10.400;2023-04-06T03:38:58;98188.50;;;-5.60;82.66
9423;BME280;65863;49.506;10.400;2023-04-06T03:41:42;98227.44;;;-5.43;82.58
9423;BME280;65863;49.506;10.400;2023-04-06T03:44:44;98207.19;;;-5.59;82.90
9423;BME280;65863;49.506;10.400;2023-04-06T03:47:28;98143.25;;;-6.00;82.85
9423;BME280;65863;49.506;10.400;2023-04-06T03:50:16;98260.69;;;-5.19;83.59
9423;BME280;65863;49.506;10.400;2023-04-06T03:53:02;98196.69;;;-5.60;83.17
9423;BME280;65863;49.506;10.400;2023-04-06T03:55:49;98226.47;;;-5.49;83.61
9423;BME280;65863;49.506;10.400;2023-04-06T03:58:33;98184.78;;;-5.66;83.87
9423;BME280;65863;49.506;10.400;2023-04-06T04:01:17;98257.53;;;-5.30;83.63
9423;BME280;65863;49.506;10.400;2023-04-06T04:04:02;98242.13;;;-5.37;83.67
9423;BME280;65863;49.506;10.400;2023-04-06T04:06:48;98260.59;;;-5.15;83.90
9423;BME280;65863;49.506;10.400;2023-04-06T04:09:32;98237.72;;;-5.47;84.12
9423;BME280;65863;49.506;10.400;2023-04-06T04:12:16;98244.75;;;-5.59;84.09
9423;BME280;65863;49.506;10.400;2023-04-06T04:15:01;98167.75;;;-6.09;84.11
9423;BME280;65863;49.506;10.400;2023-04-06T04:17:45;98222.31;;;-5.67;83.95
9423;BME280;65863;49.506;10.400;2023-04-06T04:20:31;98290.16;;;-5.49;84.11
9423;BME280;65863;49.506;10.400;2023-04-06T04:23:15;98256.22;;;-5.64;83.95
9423;BME280;65863;49.506;10.400;2023-04-06T04:25:59;98192.78;;;-6.11;83.82
9423;BME280;65863;49.506;10.400;2023-04-06T04:28:43;98220.78;;;-5.81;83.96
9423;BME280;65863;49.506;10.400;2023-04-06T04:31:27;98283.34;;;-5.57;84.51
9423;BME280;65863;49.506;10.400;2023-04-06T04:34:16;98146.25;;;-6.49;84.01
9423;BME280;65863;49.506;10.400;2023-04-06T04:37:00;98272.53;;;-5.74;84.33
9423;BME280;65863;49.506;10.400;2023-04-06T04:40:04;98262.47;;;-5.90;84.25
9423;BME280;65863;49.506;10.400;2023-04-06T04:42:56;98248.00;;;-6.03;83.83
9423;BME280;65863;49.506;10.400;2023-04-06T04:45:48;98192.88;;;-6.27;84.50
9423;BME280;65863;49.506;10.400;2023-04-06T04:48:45;98287.84;;;-5.76;84.15
9423;BME280;65863;49.506;10.400;2023-04-06T04:51:29;98214.44;;;-6.03;84.30
9423;BME280;65863;49.506;10.400;2023-04-06T04:54:41;98223.94;;;-5.95;84.26
9423;BME280;65863;49.506;10.400;2023-04-06T04:57:29;98232.47;;;-5.80;84.37
9423;BME280;65863;49.506;10.400;2023-04-06T05:00:14;98281.72;;;-5.55;84.17
9423;BME280;65863;49.506;10.400;2023-04-06T05:03:01;98244.22;;;-5.67;84.70
9423;BME280;65863;49.506;10.400;2023-04-06T05:05:53;98271.44;;;-5.50;84.81
9423;BME280;65863;49.506;10.400;2023-04-06T05:08:37;98195.53;;;-5.98;84.55
9423;BME280;65863;49.506;10.400;2023-04-06T05:11:22;98268.03;;;-5.42;84.91
9423;BME280;65863;49.506;10.400;2023-04-06T05:14:12;98270.34;;;-5.27;84.85
9423;BME280;65863;49.506;10.400;2023-04-06T05:16:56;98271.97;;;-5.17;85.40
9423;BME280;65863;49.506;10.400;2023-04-06T05:19:43;98288.16;;;-4.97;84.82
9423;BME280;65863;49.506;10.400;2023-04-06T05:22:28;98264.56;;;-4.81;85.26
9423;BME280;65863;49.506;10.400;2023-04-06T05:25:19;98190.53;;;-3.93;86.04
9423;BME280;65863;49.506;10.400;2023-04-06T05:28:07;98194.16;;;-2.50;86.83
9423;BME280;65863;49.506;10.400;2023-04-06T05:30:54;98001.50;;;-2.80;86.10
9423;BME280;65863;49.506;10.400;2023-04-06T05:33:38;98203.75;;;-0.29;86.02
9423;BME280;65863;49.506;10.400;2023-04-06T05:36:26;98258.28;;;0.86;84.51
9423;BME280;65863;49.506;10.400;2023-04-06T05:39:11;98266.22;;;1.55;81.93
9423;BME280;65863;49.506;10.400;2023-04-06T05:42:04;98278.28;;;1.99;79.35
9423;BME280;65863;49.506;10.400;2023-04-06T05:45:08;98281.72;;;3.16;76.52
9423;BME280;65863;49.506;10.400;2023-04-06T05:47:54;98298.03;;;4.40;72.95
9423;BME280;65863;49.506;10.400;2023-04-06T05:50:42;98289.44;;;4.66;68.92
9423;BME280;65863;49.506;10.400;2023-04-06T05:53:30;98290.13;;;5.23;64.11
9423;BME280;65863;49.506;10.400;2023-04-06T05:56:17;98159.19;;;4.81;60.39
9423;BME280;65863;49.506;10.400;2023-04-06T05:59:01;98270.31;;;6.08;57.47
9423;BME280;65863;49.506;10.400;2023-04-06T06:01:47;98273.09;;;6.08;54.37
9423;BME280;65863;49.506;10.400;2023-04-06T06:04:31;98272.97;;;6.61;52.22
9423;BME280;65863;49.506;10.400;2023-04-06T06:07:16;98276.44;;;7.22;50.61
9423;BME280;65863;49.506;10.400;2023-04-06T06:10:05;98289.44;;;7.64;48.60
9423;BME280;65863;49.506;10.400;2023-04-06T06:12:53;98295.16;;;8.15;47.25
9423;BME280;65863;49.506;10.400;2023-04-06T06:15:37;98258.63;;;7.50;45.99
9423;BME280;65863;49.506;10.400;2023-04-06T06:18:21;98280.25;;;8.07;45.60
9423;BME280;65863;49.506;10.400;2023-04-06T06:21:08;98307.34;;;8.69;44.59
9423;BME280;65863;49.506;10.400;2023-04-06T06:23:53;98275.41;;;8.07;44.66
9423;BME280;65863;49.506;10.400;2023-04-06T06:26:39;98261.19;;;8.24;44.01
9423;BME280;65863;49.506;10.400;2023-04-06T06:29:24;98220.66;;;7.41;43.87
9423;BME280;65863;49.506;10.400;2023-04-06T06:32:09;98280.38;;;8.34;43.91
9423;BME280;65863;49.506;10.400;2023-04-06T06:34:54;98285.97;;;8.53;44.05
9423;BME280;65863;49.506;10.400;2023-04-06T06:37:39;98256.66;;;8.21;44.15
9423;BME280;65863;49.506;10.400;2023-04-06T06:40:25;98270.25;;;8.31;44.88
9423;BME280;65863;49.506;10.400;2023-04-06T06:43:12;98298.72;;;9.26;44.06
9423;BME280;65863;49.506;10.400;2023-04-06T06:46:10;98281.28;;;9.20;42.77
9423;BME280;65863;49.506;10.400;2023-04-06T06:48:54;98281.22;;;7.90;43.70
9423;BME280;65863;49.506;10.400;2023-04-06T06:51:39;98296.78;;;8.62;44.26
9423;BME280;65863;49.506;10.400;2023-04-06T06:54:23;98283.19;;;8.34;43.97
9423;BME280;65863;49.506;10.400;2023-04-06T06:57:08;98285.38;;;8.41;43.66
9423;BME280;65863;49.506;10.400;2023-04-06T06:59:52;98295.88;;;7.34;44.74
9423;BME280;65863;49.506;10.400;2023-04-06T07:02:39;98307.13;;;6.37;46.40
9423;BME280;65863;49.506;10.400;2023-04-06T07:05:23;98290.53;;;5.50;47.80
9423;BME280;65863;49.506;10.400;2023-04-06T07:08:07;98277.00;;;5.12;49.97
9423;BME280;65863;49.506;10.400;2023-04-06T07:10:52;98309.41;;;4.93;50.87
9423;BME280;65863;49.506;10.400;2023-04-06T07:13:36;98280.56;;;4.45;52.75
9423;BME280;65863;49.506;10.400;2023-04-06T07:16:20;98278.81;;;4.42;53.74
9423;BME280;65863;49.506;10.400;2023-04-06T07:19:04;98298.75;;;4.29;54.87
9423;BME280;65863;49.506;10.400;2023-04-06T07:21:48;98268.19;;;4.23;55.56
9423;BME280;65863;49.506;10.400;2023-04-06T07:24:33;98287.63;;;4.23;55.65
9423;BME280;65863;49.506;10.400;2023-04-06T07:27:17;98289.41;;;4.21;56.14
9423;BME280;65863;49.506;10.400;2023-04-06T07:30:03;98298.56;;;4.55;56.42
9423;BME280;65863;49.506;10.400;2023-04-06T07:32:47;98267.19;;;4.66;56.47
9423;BME280;65863;49.506;10.400;2023-04-06T07:35:32;98286.13;;;4.96;55.66
9423;BME280;65863;49.506;10.400;2023-04-06T07:38:16;98313.19;;;5.07;55.30
9423;BME280;65863;49.506;10.400;2023-04-06T07:41:01;98298.03;;;4.96;55.12
9423;BME280;65863;49.506;10.400;2023-04-06T07:43:48;98318.44;;;5.33;54.74
9423;BME280;65863;49.506;10.400;2023-04-06T07:46:32;98253.72;;;5.10;54.25
9423;BME280;65863;49.506;10.400;2023-04-06T07:49:17;98309.75;;;5.65;54.07
9423;BME280;65863;49.506;10.400;2023-04-06T07:52:01;98321.78;;;6.01;53.78
9423;BME280;65863;49.506;10.400;2023-04-06T07:54:46;98270.47;;;5.74;52.43
9423;BME280;65863;49.506;10.400;2023-04-06T07:57:32;98303.75;;;6.08;51.92
9423;BME280;65863;49.506;10.400;2023-04-06T08:00:16;98290.25;;;5.59;50.65
9423;BME280;65863;49.506;10.400;2023-04-06T08:03:01;98281.09;;;5.76;50.82
9423;BME280;65863;49.506;10.400;2023-04-06T08:05:45;98285.19;;;5.63;50.88
9423;BME280;65863;49.506;10.400;2023-04-06T08:08:29;98277.94;;;6.02;51.05
9423;BME280;65863;49.506;10.400;2023-04-06T08:11:14;98297.88;;;6.53;51.46
9423;BME280;65863;49.506;10.400;2023-04-06T08:13:58;98275.72;;;6.92;51.08
9423;BME280;65863;49.506;10.400;2023-04-06T08:16:42;98312.88;;;7.36;50.22
9423;BME280;65863;49.506;10.400;2023-04-06T08:19:26;98273.06;;;7.54;49.71
9423;BME280;65863;49.506;10.400;2023-04-06T08:22:11;98274.59;;;7.74;49.20
9423;BME280;65863;49.506;10.400;2023-04-06T08:24:55;98287.34;;;7.89;48.92
9423;BME280;65863;49.506;10.400;2023-04-06T08:27:39;98299.88;;;8.20;48.87
9423;BME280;65863;49.506;10.400;2023-04-06T08:30:23;98281.47;;;8.12;47.80
9423;BME280;65863;49.506;10.400;2023-04-06T08:33:07;98276.00;;;8.19;48.07
9423;BME280;65863;49.506;10.400;2023-04-06T08:35:51;98277.06;;;8.35;48.32
9423;BME280;65863;49.506;10.400;2023-04-06T08:38:35;98289.09;;;8.49;48.48
9423;BME280;65863;49.506;10.400;2023-04-06T08:41:19;98281.88;;;8.35;47.98
9423;BME280;65863;49.506;10.400;2023-04-06T08:44:04;98234.59;;;8.18;48.06
9423;BME280;65863;49.506;10.400;2023-04-06T08:46:48;98279.44;;;8.64;47.81
9423;BME280;65863;49.506;10.400;2023-04-06T08:49:37;98303.88;;;9.22;47.82
9423;BME280;65863;49.506;10.400;2023-04-06T08:52:21;98256.78;;;8.81;46.58
9423;BME280;65863;49.506;10.400;2023-04-06T08:55:05;98273.31;;;9.24;46.53
9423;BME280;65863;49.506;10.400;2023-04-06T08:57:50;98277.63;;;9.39;46.96
9423;BME280;65863;49.506;10.400;2023-04-06T09:00:38;98282.88;;;9.69;46.06
9423;BME280;65863;49.506;10.400;2023-04-06T09:03:23;98274.47;;;9.56;45.57
9423;BME280;65863;49.506;10.400;2023-04-06T09:06:08;98294.19;;;9.77;45.28
9423;BME280;65863;49.506;10.400;2023-04-06T09:08:52;98282.78;;;9.61;44.72
9423;BME280;65863;49.506;10.400;2023-04-06T09:11:50;98288.91;;;10.21;45.11
9423;BME280;65863;49.506;10.400;2023-04-06T09:14:38;98263.66;;;10.56;43.42
9423;BME280;65863;49.506;10.400;2023-04-06T09:17:28;98266.41;;;10.69;42.52
9423;BME280;65863;49.506;10.400;2023-04-06T09:20:12;98253.69;;;10.33;41.96
9423;BME280;65863;49.506;10.400;2023-04-06T09:22:56;98268.28;;;10.32;40.63
9423;BME280;65863;49.506;10.400;2023-04-06T09:25:40;98262.34;;;10.36;39.93
9423;BME280;65863;49.506;10.400;2023-04-06T09:28:24;98259.53;;;10.36;40.56
9423;BME280;65863;49.506;10.400;2023-04-06T09:31:09;98251.69;;;10.55;40.82
9423;BME280;65863;49.506;10.400;2023-04-06T09:33:55;98234.69;;;10.40;39.50
9423;BME280;65863;49.506;10.400;2023-04-06T09:36:39;98252.16;;;10.67;39.55
9423;BME280;65863;49.506;10.400;2023-04-06T09:39:25;98278.63;;;11.00;38.94
9423;BME280;65863;49.506;10.400;2023-04-06T09:42:12;98270.56;;;11.26;38.87
9423;BME280;65863;49.506;10.400;2023-04-06T09:45:07;98253.72;;;11.26;38.38
9423;BME280;65863;49.506;10.400;2023-04-06T09:47:51;98268.16;;;11.66;37.96
9423;BME280;65863;49.506;10.400;2023-04-06T09:50:37;98243.72;;;11.17;37.16
9423;BME280;65863;49.506;10.400;2023-04-06T09:53:23;98240.19;;;11.53;37.09
9423;BME280;65863;49.506;10.400;2023-04-06T09:56:12;98259.53;;;11.64;36.54
9423;BME280;65863;49.506;10.400;2023-04-06T09:59:02;98252.47;;;11.71;36.91
9423;BME280;65863;49.506;10.400;2023-04-06T10:01:51;98252.41;;;11.63;35.77
9423;BME280;65863;49.506;10.400;2023-04-06T10:04:59;98229.91;;;11.56;36.03
9423;BME280;65863;49.506;10.400;2023-04-06T10:07:47;98245.19;;;11.83;35.60
9423;BME280;65863;49.506;10.400;2023-04-06T10:10:32;98231.69;;;11.82;35.26
9423;BME280;65863;49.506;10.400;2023-04-06T10:13:16;98247.56;;;11.64;34.18
9423;BME280;65863;49.506;10.400;2023-04-06T10:16:02;98223.88;;;11.51;34.49
9423;BME280;65863;49.506;10.400;2023-04-06T10:18:52;98215.00;;;11.84;34.77
9423;BME280;65863;49.506;10.400;2023-04-06T10:21:39;98222.22;;;12.08;34.26
9423;BME280;65863;49.506;10.400;2023-04-06T10:24:24;98227.56;;;12.58;33.42
9423;BME280;65863;49.506;10.400;2023-04-06T10:27:08;98222.03;;;12.06;32.79
9423;BME280;65863;49.506;10.400;2023-04-06T10:30:01;98240.41;;;11.99;33.21
9423;BME280;65863;49.506;10.400;2023-04-06T10:32:45;98236.22;;;11.93;33.33
9423;BME280;65863;49.506;10.400;2023-04-06T10:35:36;98220.34;;;12.03;33.33
9423;BME280;65863;49.506;10.400;2023-04-06T10:38:33;98228.69;;;12.94;33.40
9423;BME280;65863;49.506;10.400;2023-04-06T10:41:18;98175.34;;;12.88;32.84
9423;BME280;65863;49.506;10.400;2023-04-06T10:44:02;98226.00;;;12.11;31.92
9423;BME280;65863;49.506;10.400;2023-04-06T10:46:57;98238.63;;;12.48;32.59
9423;BME280;65863;49.506;10.400;2023-04-06T10:49:44;98213.13;;;12.62;33.01
9423;BME280;65863;49.506;10.400;2023-04-06T10:52:28;98205.78;;;12.82;32.85
9423;BME280;65863;49.506;10.400;2023-04-06T10:55:16;98228.13;;;12.64;32.23
9423;BME280;65863;49.506;10.400;2023-04-06T10:58:00;98212.91;;;12.60;33.17
9423;BME280;65863;49.506;10.400;2023-04-06T11:00:46;98236.94;;;12.68;33.01
9423;BME280;65863;49.506;10.400;2023-04-06T11:03:31;98218.53;;;12.60;33.10
9423;BME280;65863;49.506;10.400;2023-04-06T11:09:03;98210.25;;;13.16;32.55
9423;BME280;65863;49.506;10.400;2023-04-06T11:11:47;98206.88;;;12.94;32.24
9423;BME280;65863;49.506;10.400;2023-04-06T11:14:38;98216.53;;;13.55;32.76
9423;BME280;65863;49.506;10.400;2023-04-06T11:17:27;98197.88;;;12.57;31.44
9423;BME280;65863;49.506;10.400;2023-04-06T11:20:11;98201.19;;;12.01;31.21
9423;BME280;65863;49.506;10.400;2023-04-06T11:22:55;98202.00;;;12.71;32.93
9423;BME280;65863;49.506;10.400;2023-04-06T11:25:50;98181.91;;;12.90;32.32
9423;BME280;65863;49.506;10.400;2023-04-06T11:28:35;98194.97;;;13.42;32.26
9423;BME280;65863;49.506;10.400;2023-04-06T11:31:25;98153.22;;;12.61;32.13
9423;BME280;65863;49.506;10.400;2023-04-06T11:34:13;98214.75;;;13.19;32.48
9423;BME280;65863;49.506;10.400;2023-04-06T11:37:03;98198.56;;;13.27;32.21
9423;BME280;65863;49.506;10.400;2023-04-06T11:39:52;98189.28;;;13.57;32.31
9423;BME280;65863;49.506;10.400;2023-04-06T11:42:37;98187.09;;;13.25;31.23
9423;BME280;65863;49.506;10.400;2023-04-06T11:45:22;98199.88;;;13.41;32.14
9423;BME280;65863;49.506;10.400;2023-04-06T11:48:17;98176.97;;;13.22;31.77
9423;BME280;65863;49.506;10.400;2023-04-06T11:51:02;98172.97;;;13.48;31.52
9423;BME280;65863;49.506;10.400;2023-04-06T11:53:48;98185.56;;;13.47;30.70
9423;BME280;65863;49.506;10.400;2023-04-06T11:56:32;98179.28;;;13.64;30.76
9423;BME280;65863;49.506;10.400;2023-04-06T11:59:16;98174.31;;;13.32;30.26
9423;BME280;65863;49.506;10.400;2023-04-06T12:02:01;98157.88;;;13.61;30.07
9423;BME280;65863;49.506;10.400;2023-04-06T12:04:45;98177.97;;;13.65;28.47
9423;BME280;65863;49.506;10.400;2023-04-06T12:07:29;98152.91;;;13.21;28.77
9423;BME280;65863;49.506;10.400;2023-04-06T12:10:14;98169.16;;;13.94;29.68
9423;BME280;65863;49.506;10.400;2023-04-06T12:12:58;98179.00;;;14.43;30.26
9423;BME280;65863;49.506;10.400;2023-04-06T12:15:42;98157.38;;;14.38;29.97
9423;BME280;65863;49.506;10.400;2023-04-06T12:18:26;98163.53;;;14.70;29.43
9423;BME280;65863;49.506;10.400;2023-04-06T12:21:10;98171.69;;;14.07;29.69
9423;BME280;65863;49.506;10.400;2023-04-06T12:23:54;98103.09;;;13.97;30.12
9423;BME280;65863;49.506;10.400;2023-04-06T12:26:38;98154.09;;;13.99;30.32
9423;BME280;65863;49.506;10.400;2023-04-06T12:29:24;98178.25;;;14.18;30.19
9423;BME280;65863;49.506;10.400;2023-04-06T12:32:08;98141.72;;;14.20;30.49
9423;BME280;65863;49.506;10.400;2023-04-06T12:34:52;98164.84;;;13.93;29.96
9423;BME280;65863;49.506;10.400;2023-04-06T12:37:37;98151.91;;;13.34;31.26
9423;BME280;65863;49.506;10.400;2023-04-06T12:40:21;98150.28;;;13.15;31.87
9423;BME280;65863;49.506;10.400;2023-04-06T12:43:05;98159.41;;;12.52;31.91
9423;BME280;65863;49.506;10.400;2023-04-06T12:45:49;98164.47;;;12.69;32.79
9423;BME280;65863;49.506;10.400;2023-04-06T12:48:33;98150.97;;;12.52;32.18
9423;BME280;65863;49.506;10.400;2023-04-06T12:51:21;98118.69;;;12.07;31.44
9423;BME280;65863;49.506;10.400;2023-04-06T12:54:05;98125.41;;;11.96;31.73
9423;BME280;65863;49.506;10.400;2023-04-06T12:56:50;98133.31;;;12.74;31.75
9423;BME280;65863;49.506;10.400;2023-04-06T12:59:34;98163.09;;;13.65;31.25
9423;BME280;65863;49.506;10.400;2023-04-06T13:02:19;98125.47;;;14.03;30.66
9423;BME280;65863;49.506;10.400;2023-04-06T13:05:06;98157.16;;;14.44;30.24
9423;BME280;65863;49.506;10.400;2023-04-06T13:07:51;98137.59;;;13.88;30.23
9423;BME280;65863;49.506;10.400;2023-04-06T13:10:34;98141.09;;;13.96;30.68
9423;BME280;65863;49.506;10.400;2023-04-06T13:13:26;98121.44;;;14.14;30.08
9423;BME280;65863;49.506;10.400;2023-04-06T13:16:10;98135.47;;;13.96;29.99
9423;BME280;65863;49.506;10.400;2023-04-06T13:18:54;98106.06;;;14.07;30.46
9423;BME280;65863;49.506;10.400;2023-04-06T13:21:39;98114.50;;;14.07;30.20
9423;BME280;65863;49.506;10.400;2023-04-06T13:24:23;98110.75;;;13.79;30.05
9423;BME280;65863;49.506;10.400;2023-04-06T13:27:07;98090.16;;;13.94;30.45
9423;BME280;65863;49.506;10.400;2023-04-06T13:29:57;98093.38;;;13.90;30.52
9423;BME280;65863;49.506;10.400;2023-04-06T13:32:41;98097.31;;;13.62;29.64
9423;BME280;65863;49.506;10.400;2023-04-06T13:35:26;98106.78;;;14.07;29.04
9423;BME280;65863;49.506;10.400;2023-04-06T13:38:09;98125.94;;;14.59;28.36
9423;BME280;65863;49.506;10.400;2023-04-06T13:40:54;98065.94;;;14.34;28.18
9423;BME280;65863;49.506;10.400;2023-04-06T13:43:38;98101.91;;;14.76;27.76
9423;BME280;65863;49.506;10.400;2023-04-06T13:46:23;98096.97;;;14.59;27.90
9423;BME280;65863;49.506;10.400;2023-04-06T13:49:08;98077.00;;;14.57;28.50
9423;BME280;65863;49.506;10.400;2023-04-06T13:51:51;98105.25;;;14.57;28.96
9423;BME280;65863;49.506;10.400;2023-04-06T13:54:36;98100.28;;;14.22;29.11
9423;BME280;65863;49.506;10.400;2023-04-06T13:57:20;98094.03;;;14.06;30.00
9423;BME280;65863;49.506;10.400;2023-04-06T14:00:05;98103.28;;;14.24;29.97
9423;BME280;65863;49.506;10.400;2023-04-06T14:02:50;98084.78;;;14.31;29.40
9423;BME280;65863;49.506;10.400;2023-04-06T14:05:34;98113.97;;;14.26;29.54
9423;BME280;65863;49.506;10.400;2023-04-06T14:08:19;98098.91;;;14.49;29.49
9423;BME280;65863;49.506;10.400;2023-04-06T14:11:04;98081.56;;;14.09;29.43
9423;BME280;65863;49.506;10.400;2023-04-06T14:13:50;98073.31;;;14.29;29.15
9423;BME280;65863;49.506;10.400;2023-04-06T14:16:34;98095.63;;;13.59;29.21
9423;BME280;65863;49.506;10.400;2023-04-06T14:19:18;98054.84;;;12.55;29.73
9423;BME280;65863;49.506;10.400;2023-04-06T14:22:03;98093.13;;;12.66;31.26
9423;BME280;65863;49.506;10.400;2023-04-06T14:24:47;98073.25;;;12.49;31.91
9423;BME280;65863;49.506;10.400;2023-04-06T14:27:31;98107.97;;;13.38;31.42
9423;BME280;65863;49.506;10.400;2023-04-06T14:30:16;98068.41;;;13.54;30.82
9423;BME280;65863;49.506;10.400;2023-04-06T14:33:01;98069.28;;;13.64;30.29
9423;BME280;65863;49.506;10.400;2023-04-06T14:35:45;98089.81;;;13.90;29.46
9423;BME280;65863;49.506;10.400;2023-04-06T14:38:29;98079.50;;;14.10;29.62
9423;BME280;65863;49.506;10.400;2023-04-06T14:41:17;98068.94;;;13.60;29.87
9423;BME280;65863;49.506;10.400;2023-04-06T14:44:02;98060.47;;;13.60;30.39
9423;BME280;65863;49.506;10.400;2023-04-06T14:46:46;98023.31;;;13.05;29.54